sensor_id;sensor_type;location;lat;lon;timestamp;P1;durP1;ratioP1;P2;durP2;ratioP2
68921;SDS011;55959;51.244;5.724;2023-03-23T00:01:24;1.73;;;1.60;;
68921;SDS011;55959;51.244;5.724;2023-03-23T00:03:51;3.30;;;2.00;;
68921;SDS011;55959;51.244;5.724;2023-03-23T00:06:22;1.93;;;1.77;;
68921;SDS011;55959;51.244;5.724;2023-03-23T00:08:51;2.50;;;1.60;;
68921;SDS011;55959;51.244;5.724;2023-03-23T00:11:23;2.10;;;1.50;;
68921;SDS011;55959;51.244;5.724;2023-03-23T00:13:56;3.27;;;1.90;;
68921;SDS011;55959;51.244;5.724;2023-03-23T00:16:26;2.60;;;1.80;;
68921;SDS011;55959;51.244;5.724;2023-03-23T00:19:05;1.93;;;1.73;;
68921;SDS011;55959;51.244;5.724;2023-03-23T00:21:41;2.23;;;2.00;;
68921;SDS011;55959;51.244;5.724;2023-03-23T00:26:36;2.47;;;2.27;;
68921;SDS011;55959;51.244;5.724;2023-03-23T00:29:10;2.67;;;1.97;;
68921;SDS011;55959;51.244;5.724;2023-03-23T00:31:48;2.10;;;1.90;;
68921;SDS011;55959;51.244;5.724;2023-03-23T00:34:15;2.33;;;1.87;;
68921;SDS011;55959;51.244;5.724;2023-03-23T00:36:51;3.40;;;1.90;;
68921;SDS011;55959;51.244;5.724;2023-03-23T00:39:22;2.40;;;1.93;;
68921;SDS011;55959;51.244;5.724;2023-03-23T00:41:51;2.83;;;2.17;;
68921;SDS011;55959;51.244;5.724;2023-03-23T00:44:19;2.73;;;1.93;;
68921;SDS011;55959;51.244;5.724;2023-03-23T00:46:48;2.97;;;2.10;;
68921;SDS011;55959;51.244;5.724;2023-03-23T00:49:15;2.20;;;1.83;;
68921;SDS011;55959;51.244;5.724;2023-03-23T00:51:44;3.80;;;1.80;;
68921;SDS011;55959;51.244;5.724;2023-03-23T00:54:11;3.73;;;1.90;;
68921;SDS011;55959;51.244;5.724;2023-03-23T00:56:37;3.03;;;1.87;;
68921;SDS011;55959;51.244;5.724;2023-03-23T00:59:04;2.40;;;1.80;;
68921;SDS011;55959;51.244;5.724;2023-03-23T01:01:30;3.20;;;2.00;;
68921;SDS011;55959;51.244;5.724;2023-03-23T01:04:00;2.40;;;1.90;;
68921;SDS011;55959;51.244;5.724;2023-03-23T01:06:36;2.03;;;1.73;;
68921;SDS011;55959;51.244;5.724;2023-03-23T01:09:08;3.10;;;2.20;;
68921;SDS011;55959;51.244;5.724;2023-03-23T01:11:41;3.50;;;2.50;;
68921;SDS011;55959;51.244;5.724;2023-03-23T01:14:10;2.63;;;1.50;;
68921;SDS011;55959;51.244;5.724;2023-03-23T01:16:38;1.60;;;1.50;;
68921;SDS011;55959;51.244;5.724;2023-03-23T01:19:04;2.47;;;2.07;;
68921;SDS011;55959;51.244;5.724;2023-03-23T01:21:30;1.83;;;1.73;;
68921;SDS011;55959;51.244;5.724;2023-03-23T01:23:56;2.30;;;2.10;;
68921;SDS011;55959;51.244;5.724;2023-03-23T01:26:23;2.03;;;1.87;;
68921;SDS011;55959;51.244;5.724;2023-03-23T01:28:51;1.90;;;1.80;;
68921;SDS011;55959;51.244;5.724;2023-03-23T01:31:18;2.93;;;1.80;;
68921;SDS011;55959;51.244;5.724;2023-03-23T01:33:47;2.73;;;2.10;;
68921;SDS011;55959;51.244;5.724;2023-03-23T01:36:17;3.90;;;2.30;;
68921;SDS011;55959;51.244;5.724;2023-03-23T01:38:46;2.17;;;1.93;;
68921;SDS011;55959;51.244;5.724;2023-03-23T01:41:14;2.40;;;2.20;;
68921;SDS011;55959;51.244;5.724;2023-03-23T01:43:54;1.90;;;1.70;;
68921;SDS011;55959;51.244;5.724;2023-03-23T01:46:33;1.67;;;1.57;;
68921;SDS011;55959;51.244;5.724;2023-03-23T01:49:06;2.30;;;2.10;;
68921;SDS011;55959;51.244;5.724;2023-03-23T01:51:40;2.30;;;2.00;;
68921;SDS011;55959;51.244;5.724;2023-03-23T01:54:13;2.20;;;2.00;;
68921;SDS011;55959;51.244;5.724;2023-03-23T01:56:50;2.80;;;1.87;;
68921;SDS011;55959;51.244;5.724;2023-03-23T01:59:26;2.63;;;2.40;;
68921;SDS011;55959;51.244;5.724;2023-03-23T02:01:54;2.67;;;2.30;;
68921;SDS011;55959;51.244;5.724;2023-03-23T02:04:21;2.87;;;2.20;;
68921;SDS011;55959;51.244;5.724;2023-03-23T02:06:49;2.90;;;2.23;;
68921;SDS011;55959;51.244;5.724;2023-03-23T02:09:16;3.10;;;2.20;;
68921;SDS011;55959;51.244;5.724;2023-03-23T02:11:43;4.50;;;2.70;;
68921;SDS011;55959;51.244;5.724;2023-03-23T02:14:11;3.37;;;2.50;;
68921;SDS011;55959;51.244;5.724;2023-03-23T02:32:28;2.23;;;2.03;;
68921;SDS011;55959;51.244;5.724;2023-03-23T02:35:23;2.97;;;2.67;;
68921;SDS011;55959;51.244;5.724;2023-03-23T02:38:01;3.27;;;2.90;;
68921;SDS011;55959;51.244;5.724;2023-03-23T02:40:37;4.40;;;2.70;;
68921;SDS011;55959;51.244;5.724;2023-03-23T02:43:07;2.60;;;2.17;;
68921;SDS011;55959;51.244;5.724;2023-03-23T02:45:37;2.37;;;2.17;;
68921;SDS011;55959;51.244;5.724;2023-03-23T02:48:05;4.73;;;2.40;;
68921;SDS011;55959;51.244;5.724;2023-03-23T02:50:33;2.80;;;2.50;;
68921;SDS011;55959;51.244;5.724;2023-03-23T02:53:02;4.03;;;2.43;;
68921;SDS011;55959;51.244;5.724;2023-03-23T02:55:33;3.83;;;1.97;;
68921;SDS011;55959;51.244;5.724;2023-03-23T02:58:00;2.83;;;2.37;;
68921;SDS011;55959;51.244;5.724;2023-03-23T03:00:26;2.40;;;2.20;;
68921;SDS011;55959;51.244;5.724;2023-03-23T03:02:53;2.63;;;2.13;;
68921;SDS011;55959;51.244;5.724;2023-03-23T03:05:26;2.30;;;2.10;;
68921;SDS011;55959;51.244;5.724;2023-03-23T03:13:48;2.70;;;2.20;;
68921;SDS011;55959;51.244;5.724;2023-03-23T03:21:50;2.53;;;2.13;;
68921;SDS011;55959;51.244;5.724;2023-03-23T03:24:18;4.13;;;2.20;;
68921;SDS011;55959;51.244;5.724;2023-03-23T03:26:48;2.50;;;2.00;;
68921;SDS011;55959;51.244;5.724;2023-03-23T03:29:20;2.20;;;2.00;;
68921;SDS011;55959;51.244;5.724;2023-03-23T03:31:51;2.23;;;2.03;;
68921;SDS011;55959;51.244;5.724;2023-03-23T03:34:20;3.03;;;2.10;;
68921;SDS011;55959;51.244;5.724;2023-03-23T03:36:46;2.53;;;2.20;;
68921;SDS011;55959;51.244;5.724;2023-03-23T03:39:15;3.07;;;2.10;;
68921;SDS011;55959;51.244;5.724;2023-03-23T03:41:42;2.33;;;2.13;;
68921;SDS011;55959;51.244;5.724;2023-03-23T03:44:09;3.30;;;2.50;;
68921;SDS011;55959;51.244;5.724;2023-03-23T03:46:35;3.37;;;2.30;;
68921;SDS011;55959;51.244;5.724;2023-03-23T03:49:02;2.83;;;2.00;;
68921;SDS011;55959;51.244;5.724;2023-03-23T03:51:30;3.03;;;2.17;;
68921;SDS011;55959;51.244;5.724;2023-03-23T03:53:57;2.53;;;2.13;;
68921;SDS011;55959;51.244;5.724;2023-03-23T03:56:23;2.77;;;2.03;;
68921;SDS011;55959;51.244;5.724;2023-03-23T03:58:50;3.20;;;2.60;;
68921;SDS011;55959;51.244;5.724;2023-03-23T04:01:16;2.73;;;2.37;;
68921;SDS011;55959;51.244;5.724;2023-03-23T04:03:46;2.17;;;1.83;;
68921;SDS011;55959;51.244;5.724;2023-03-23T04:06:12;2.67;;;2.40;;
68921;SDS011;55959;51.244;5.724;2023-03-23T04:08:38;2.40;;;2.23;;
68921;SDS011;55959;51.244;5.724;2023-03-23T04:11:06;4.17;;;2.33;;
68921;SDS011;55959;51.244;5.724;2023-03-23T04:13:33;2.73;;;2.00;;
68921;SDS011;55959;51.244;5.724;2023-03-23T04:15:59;2.50;;;1.80;;
68921;SDS011;55959;51.244;5.724;2023-03-23T04:18:25;3.57;;;2.03;;
68921;SDS011;55959;51.244;5.724;2023-03-23T04:20:51;2.30;;;1.90;;
68921;SDS011;55959;51.244;5.724;2023-03-23T04:23:18;2.30;;;2.03;;
68921;SDS011;55959;51.244;5.724;2023-03-23T04:25:47;2.90;;;1.70;;
68921;SDS011;55959;51.244;5.724;2023-03-23T04:28:18;2.27;;;1.80;;
68921;SDS011;55959;51.244;5.724;2023-03-23T04:30:48;3.10;;;1.93;;
68921;SDS011;55959;51.244;5.724;2023-03-23T04:33:17;2.13;;;1.90;;
68921;SDS011;55959;51.244;5.724;2023-03-23T04:35:45;2.53;;;2.23;;
68921;SDS011;55959;51.244;5.724;2023-03-23T04:38:13;2.53;;;2.20;;
68921;SDS011;55959;51.244;5.724;2023-03-23T04:40:41;3.17;;;1.77;;
68921;SDS011;55959;51.244;5.724;2023-03-23T04:43:08;2.63;;;1.80;;
68921;SDS011;55959;51.244;5.724;2023-03-23T04:45:37;2.83;;;1.80;;
68921;SDS011;55959;51.244;5.724;2023-03-23T04:48:06;2.00;;;1.57;;
68921;SDS011;55959;51.244;5.724;2023-03-23T04:50:33;2.50;;;1.77;;
68921;SDS011;55959;51.244;5.724;2023-03-23T04:53:00;2.93;;;1.93;;
68921;SDS011;55959;51.244;5.724;2023-03-23T04:55:32;2.80;;;1.70;;
68921;SDS011;55959;51.244;5.724;2023-03-23T04:58:03;3.00;;;1.90;;
68921;SDS011;55959;51.244;5.724;2023-03-23T05:00:30;2.73;;;1.80;;
68921;SDS011;55959;51.244;5.724;2023-03-23T05:03:00;4.20;;;1.90;;
68921;SDS011;55959;51.244;5.724;2023-03-23T05:05:26;2.10;;;1.50;;
68921;SDS011;55959;51.244;5.724;2023-03-23T05:07:55;2.37;;;1.77;;
68921;SDS011;55959;51.244;5.724;2023-03-23T05:10:21;3.63;;;1.83;;
68921;SDS011;55959;51.244;5.724;2023-03-23T05:12:48;2.63;;;1.60;;
68921;SDS011;55959;51.244;5.724;2023-03-23T05:15:14;2.77;;;1.60;;
68921;SDS011;55959;51.244;5.724;2023-03-23T05:17:42;2.27;;;1.60;;
68921;SDS011;55959;51.244;5.724;2023-03-23T05:20:11;3.03;;;1.63;;
68921;SDS011;55959;51.244;5.724;2023-03-23T05:22:39;2.63;;;1.60;;
68921;SDS011;55959;51.244;5.724;2023-03-23T05:25:07;2.00;;;1.50;;
68921;SDS011;55959;51.244;5.724;2023-03-23T05:27:35;2.93;;;1.60;;
68921;SDS011;55959;51.244;5.724;2023-03-23T05:30:02;3.60;;;1.70;;
68921;SDS011;55959;51.244;5.724;2023-03-23T05:32:32;4.47;;;1.70;;
68921;SDS011;55959;51.244;5.724;2023-03-23T05:34:58;4.37;;;1.73;;
68921;SDS011;55959;51.244;5.724;2023-03-23T05:37:26;4.17;;;1.63;;
68921;SDS011;55959;51.244;5.724;2023-03-23T05:39:57;3.60;;;1.77;;
68921;SDS011;55959;51.244;5.724;2023-03-23T05:42:28;4.60;;;1.83;;
68921;SDS011;55959;51.244;5.724;2023-03-23T05:44:54;3.67;;;1.43;;
68921;SDS011;55959;51.244;5.724;2023-03-23T05:47:20;6.40;;;1.73;;
68921;SDS011;55959;51.244;5.724;2023-03-23T05:49:45;2.70;;;1.50;;
68921;SDS011;55959;51.244;5.724;2023-03-23T05:52:11;3.10;;;1.90;;
68921;SDS011;55959;51.244;5.724;2023-03-23T05:54:37;4.07;;;1.70;;
68921;SDS011;55959;51.244;5.724;2023-03-23T05:57:03;3.60;;;1.33;;
68921;SDS011;55959;51.244;5.724;2023-03-23T05:59:29;4.57;;;1.53;;
68921;SDS011;55959;51.244;5.724;2023-03-23T06:01:54;3.97;;;1.60;;
68921;SDS011;55959;51.244;5.724;2023-03-23T06:04:21;4.77;;;1.70;;
68921;SDS011;55959;51.244;5.724;2023-03-23T06:06:49;4.20;;;1.80;;
68921;SDS011;55959;51.244;5.724;2023-03-23T06:09:17;3.07;;;1.50;;
68921;SDS011;55959;51.244;5.724;2023-03-23T06:11:43;3.57;;;1.70;;
68921;SDS011;55959;51.244;5.724;2023-03-23T06:14:09;3.90;;;1.30;;
68921;SDS011;55959;51.244;5.724;2023-03-23T06:16:36;3.70;;;1.47;;
68921;SDS011;55959;51.244;5.724;2023-03-23T06:19:02;4.53;;;1.57;;
68921;SDS011;55959;51.244;5.724;2023-03-23T06:21:29;2.87;;;1.43;;
68921;SDS011;55959;51.244;5.724;2023-03-23T06:23:56;3.37;;;1.50;;
68921;SDS011;55959;51.244;5.724;2023-03-23T06:26:25;2.50;;;1.40;;
68921;SDS011;55959;51.244;5.724;2023-03-23T06:28:56;3.30;;;1.60;;
68921;SDS011;55959;51.244;5.724;2023-03-23T06:31:22;2.97;;;1.20;;
68921;SDS011;55959;51.244;5.724;2023-03-23T06:33:49;1.77;;;0.90;;
68921;SDS011;55959;51.244;5.724;2023-03-23T06:36:16;3.43;;;1.37;;
68921;SDS011;55959;51.244;5.724;2023-03-23T06:38:42;3.20;;;1.20;;
68921;SDS011;55959;51.244;5.724;2023-03-23T06:41:08;3.07;;;1.50;;
68921;SDS011;55959;51.244;5.724;2023-03-23T06:43:34;1.87;;;1.40;;
68921;SDS011;55959;51.244;5.724;2023-03-23T06:46:02;2.60;;;1.20;;
68921;SDS011;55959;51.244;5.724;2023-03-23T06:48:28;2.30;;;1.00;;
68921;SDS011;55959;51.244;5.724;2023-03-23T06:50:55;2.20;;;1.30;;
68921;SDS011;55959;51.244;5.724;2023-03-23T06:53:20;3.40;;;1.20;;
68921;SDS011;55959;51.244;5.724;2023-03-23T06:55:46;3.43;;;1.50;;
68921;SDS011;55959;51.244;5.724;2023-03-23T06:58:12;3.63;;;1.40;;
68921;SDS011;55959;51.244;5.724;2023-03-23T07:00:38;3.10;;;1.20;;
68921;SDS011;55959;51.244;5.724;2023-03-23T07:03:05;3.60;;;1.50;;
68921;SDS011;55959;51.244;5.724;2023-03-23T07:05:32;3.40;;;1.43;;
68921;SDS011;55959;51.244;5.724;2023-03-23T07:07:59;3.60;;;1.60;;
68921;SDS011;55959;51.244;5.724;2023-03-23T07:10:29;2.63;;;1.23;;
68921;SDS011;55959;51.244;5.724;2023-03-23T07:12:55;2.50;;;1.47;;
68921;SDS011;55959;51.244;5.724;2023-03-23T07:15:21;2.90;;;1.40;;
68921;SDS011;55959;51.244;5.724;2023-03-23T07:17:47;3.00;;;1.40;;
68921;SDS011;55959;51.244;5.724;2023-03-23T07:20:13;3.33;;;1.20;;
68921;SDS011;55959;51.244;5.724;2023-03-23T07:22:39;2.80;;;1.07;;
68921;SDS011;55959;51.244;5.724;2023-03-23T07:25:05;3.03;;;1.40;;
68921;SDS011;55959;51.244;5.724;2023-03-23T07:27:32;3.53;;;1.63;;
68921;SDS011;55959;51.244;5.724;2023-03-23T07:29:59;3.03;;;1.70;;
68921;SDS011;55959;51.244;5.724;2023-03-23T07:32:24;3.37;;;1.33;;
68921;SDS011;55959;51.244;5.724;2023-03-23T07:34:50;4.30;;;1.73;;
68921;SDS011;55959;51.244;5.724;2023-03-23T07:37:16;1.50;;;1.00;;
68921;SDS011;55959;51.244;5.724;2023-03-23T07:39:42;4.03;;;1.47;;
68921;SDS011;55959;51.244;5.724;2023-03-23T07:42:08;4.37;;;1.60;;
68921;SDS011;55959;51.244;5.724;2023-03-23T07:44:35;3.97;;;1.20;;
68921;SDS011;55959;51.244;5.724;2023-03-23T07:47:01;2.20;;;1.20;;
68921;SDS011;55959;51.244;5.724;2023-03-23T07:49:27;2.67;;;1.27;;
68921;SDS011;55959;51.244;5.724;2023-03-23T07:51:55;3.17;;;1.27;;
68921;SDS011;55959;51.244;5.724;2023-03-23T07:54:22;3.13;;;1.57;;
68921;SDS011;55959;51.244;5.724;2023-03-23T07:56:49;3.50;;;1.30;;
68921;SDS011;55959;51.244;5.724;2023-03-23T07:59:14;2.70;;;1.20;;
68921;SDS011;55959;51.244;5.724;2023-03-23T08:01:40;3.10;;;1.40;;
68921;SDS011;55959;51.244;5.724;2023-03-23T08:04:06;2.20;;;1.40;;
68921;SDS011;55959;51.244;5.724;2023-03-23T08:06:32;4.10;;;1.70;;
68921;SDS011;55959;51.244;5.724;2023-03-23T08:08:59;4.23;;;1.50;;
68921;SDS011;55959;51.244;5.724;2023-03-23T08:11:27;7.13;;;1.40;;
68921;SDS011;55959;51.244;5.724;2023-03-23T08:13:53;2.87;;;1.30;;
68921;SDS011;55959;51.244;5.724;2023-03-23T08:16:19;2.87;;;1.20;;
68921;SDS011;55959;51.244;5.724;2023-03-23T08:18:45;3.90;;;1.50;;
68921;SDS011;55959;51.244;5.724;2023-03-23T08:21:12;6.53;;;1.83;;
68921;SDS011;55959;51.244;5.724;2023-03-23T08:23:38;4.07;;;0.80;;
68921;SDS011;55959;51.244;5.724;2023-03-23T08:26:07;1.10;;;0.50;;
68921;SDS011;55959;51.244;5.724;2023-03-23T08:28:36;1.23;;;0.50;;
68921;SDS011;55959;51.244;5.724;2023-03-23T08:31:06;1.73;;;0.60;;
68921;SDS011;55959;51.244;5.724;2023-03-23T08:33:35;0.90;;;0.47;;
68921;SDS011;55959;51.244;5.724;2023-03-23T08:36:02;1.23;;;0.50;;
68921;SDS011;55959;51.244;5.724;2023-03-23T08:38:28;2.00;;;0.60;;
68921;SDS011;55959;51.244;5.724;2023-03-23T08:40:58;2.47;;;0.70;;
68921;SDS011;55959;51.244;5.724;2023-03-23T08:43:26;1.17;;;0.30;;
68921;SDS011;55959;51.244;5.724;2023-03-23T08:45:52;1.50;;;0.80;;
68921;SDS011;55959;51.244;5.724;2023-03-23T08:48:18;2.13;;;0.90;;
68921;SDS011;55959;51.244;5.724;2023-03-23T08:50:45;1.43;;;0.37;;
68921;SDS011;55959;51.244;5.724;2023-03-23T08:53:11;0.83;;;0.40;;
68921;SDS011;55959;51.244;5.724;2023-03-23T08:55:38;1.20;;;0.60;;
68921;SDS011;55959;51.244;5.724;2023-03-23T08:58:04;0.83;;;0.53;;
68921;SDS011;55959;51.244;5.724;2023-03-23T09:00:31;1.20;;;0.57;;
68921;SDS011;55959;51.244;5.724;2023-03-23T09:02:57;1.50;;;0.67;;
68921;SDS011;55959;51.244;5.724;2023-03-23T09:05:24;0.97;;;0.40;;
68921;SDS011;55959;51.244;5.724;2023-03-23T09:07:53;1.27;;;0.47;;
68921;SDS011;55959;51.244;5.724;2023-03-23T09:10:24;1.40;;;0.50;;
68921;SDS011;55959;51.244;5.724;2023-03-23T09:12:52;0.83;;;0.50;;
68921;SDS011;55959;51.244;5.724;2023-03-23T09:15:20;0.40;;;0.30;;
68921;SDS011;55959;51.244;5.724;2023-03-23T09:17:47;0.97;;;0.50;;
68921;SDS011;55959;51.244;5.724;2023-03-23T09:20:17;1.30;;;0.50;;
68921;SDS011;55959;51.244;5.724;2023-03-23T09:22:48;1.43;;;0.70;;
68921;SDS011;55959;51.244;5.724;2023-03-23T09:25:17;1.03;;;0.50;;
68921;SDS011;55959;51.244;5.724;2023-03-23T09:27:48;0.80;;;0.57;;
68921;SDS011;55959;51.244;5.724;2023-03-23T09:30:21;2.13;;;0.63;;
68921;SDS011;55959;51.244;5.724;2023-03-23T09:32:59;1.60;;;0.60;;
68921;SDS011;55959;51.244;5.724;2023-03-23T09:35:26;0.83;;;0.67;;
68921;SDS011;55959;51.244;5.724;2023-03-23T09:37:53;0.83;;;0.50;;
68921;SDS011;55959;51.244;5.724;2023-03-23T09:40:20;1.70;;;0.60;;
68921;SDS011;55959;51.244;5.724;2023-03-23T09:45:37;1.63;;;0.80;;
68921;SDS011;55959;51.244;5.724;2023-03-23T09:48:25;0.93;;;0.50;;
68921;SDS011;55959;51.244;5.724;2023-03-23T09:51:11;1.03;;;0.60;;
68921;SDS011;55959;51.244;5.724;2023-03-23T09:53:45;1.43;;;0.67;;
68921;SDS011;55959;51.244;5.724;2023-03-23T09:56:17;1.60;;;0.47;;
68921;SDS011;55959;51.244;5.724;2023-03-23T09:58:51;1.07;;;0.60;;
68921;SDS011;55959;51.244;5.724;2023-03-23T10:01:31;1.60;;;0.67;;
68921;SDS011;55959;51.244;5.724;2023-03-23T10:04:03;1.63;;;0.67;;
68921;SDS011;55959;51.244;5.724;2023-03-23T10:06:40;1.43;;;0.60;;
68921;SDS011;55959;51.244;5.724;2023-03-23T10:09:05;2.00;;;0.60;;
68921;SDS011;55959;51.244;5.724;2023-03-23T10:11:41;2.70;;;0.83;;
68921;SDS011;55959;51.244;5.724;2023-03-23T10:17:28;1.47;;;1.00;;
68921;SDS011;55959;51.244;5.724;2023-03-23T10:29:01;3.13;;;1.30;;
68921;SDS011;55959;51.244;5.724;2023-03-23T10:31:51;2.10;;;1.40;;
68921;SDS011;55959;51.244;5.724;2023-03-23T10:34:31;1.60;;;1.10;;
68921;SDS011;55959;51.244;5.724;2023-03-23T10:42:26;2.43;;;0.70;;
68921;SDS011;55959;51.244;5.724;2023-03-23T10:45:00;2.37;;;0.73;;
68921;SDS011;55959;51.244;5.724;2023-03-23T10:47:43;2.77;;;1.00;;
68921;SDS011;55959;51.244;5.724;2023-03-23T10:50:22;1.73;;;0.90;;
68921;SDS011;55959;51.244;5.724;2023-03-23T10:52:52;1.30;;;0.73;;
68921;SDS011;55959;51.244;5.724;2023-03-23T10:55:22;2.77;;;0.83;;
68921;SDS011;55959;51.244;5.724;2023-03-23T10:58:11;1.67;;;1.00;;
68921;SDS011;55959;51.244;5.724;2023-03-23T11:00:49;1.40;;;0.60;;
68921;SDS011;55959;51.244;5.724;2023-03-23T11:08:14;1.00;;;0.83;;
68921;SDS011;55959;51.244;5.724;2023-03-23T11:11:19;2.10;;;0.90;;
68921;SDS011;55959;51.244;5.724;2023-03-23T11:14:02;1.70;;;0.93;;
68921;SDS011;55959;51.244;5.724;2023-03-23T11:16:45;1.40;;;0.70;;
68921;SDS011;55959;51.244;5.724;2023-03-23T11:19:22;1.10;;;1.00;;
68921;SDS011;55959;51.244;5.724;2023-03-23T11:24:42;1.87;;;1.00;;
68921;SDS011;55959;51.244;5.724;2023-03-23T11:27:11;1.30;;;0.90;;
68921;SDS011;55959;51.244;5.724;2023-03-23T11:30:00;2.50;;;1.23;;
68921;SDS011;55959;51.244;5.724;2023-03-23T11:32:35;1.83;;;0.90;;
68921;SDS011;55959;51.244;5.724;2023-03-23T11:35:06;1.73;;;0.93;;
68921;SDS011;55959;51.244;5.724;2023-03-23T11:37:47;1.33;;;0.90;;
68921;SDS011;55959;51.244;5.724;2023-03-23T11:40:29;2.10;;;1.00;;
68921;SDS011;55959;51.244;5.724;2023-03-23T11:43:07;1.77;;;1.00;;
68921;SDS011;55959;51.244;5.724;2023-03-23T11:46:10;2.07;;;1.10;;
68921;SDS011;55959;51.244;5.724;2023-03-23T11:51:39;1.50;;;1.20;;
68921;SDS011;55959;51.244;5.724;2023-03-23T11:57:00;1.40;;;1.30;;
68921;SDS011;55959;51.244;5.724;2023-03-23T11:59:31;1.70;;;1.20;;
68921;SDS011;55959;51.244;5.724;2023-03-23T12:05:23;2.63;;;1.17;;
68921;SDS011;55959;51.244;5.724;2023-03-23T12:16:32;2.57;;;1.47;;
68921;SDS011;55959;51.244;5.724;2023-03-23T12:31:09;4.27;;;1.83;;
68921;SDS011;55959;51.244;5.724;2023-03-23T12:36:35;2.63;;;1.77;;
68921;SDS011;55959;51.244;5.724;2023-03-23T12:48:25;3.57;;;1.93;;
68921;SDS011;55959;51.244;5.724;2023-03-23T12:53:47;4.50;;;1.93;;
68921;SDS011;55959;51.244;5.724;2023-03-23T13:05:29;3.90;;;2.00;;
68921;SDS011;55959;51.244;5.724;2023-03-23T13:08:16;4.33;;;2.30;;
68921;SDS011;55959;51.244;5.724;2023-03-23T13:10:50;2.07;;;1.70;;
68921;SDS011;55959;51.244;5.724;2023-03-23T13:13:20;2.73;;;1.70;;
68921;SDS011;55959;51.244;5.724;2023-03-23T13:21:20;3.37;;;1.83;;
68921;SDS011;55959;51.244;5.724;2023-03-23T13:23:57;2.07;;;1.87;;
68921;SDS011;55959;51.244;5.724;2023-03-23T13:26:28;4.13;;;1.97;;
68921;SDS011;55959;51.244;5.724;2023-03-23T13:31:31;4.13;;;1.80;;
68921;SDS011;55959;51.244;5.724;2023-03-23T13:34:12;2.83;;;1.60;;
68921;SDS011;55959;51.244;5.724;2023-03-23T13:36:57;3.30;;;1.90;;
68921;SDS011;55959;51.244;5.724;2023-03-23T13:39:48;2.77;;;1.53;;
68921;SDS011;55959;51.244;5.724;2023-03-23T13:42:22;2.30;;;1.67;;
68921;SDS011;55959;51.244;5.724;2023-03-23T13:47:37;3.27;;;1.70;;
68921;SDS011;55959;51.244;5.724;2023-03-23T13:57:57;4.83;;;1.70;;
68921;SDS011;55959;51.244;5.724;2023-03-23T14:00:48;5.73;;;1.90;;
68921;SDS011;55959;51.244;5.724;2023-03-23T14:03:37;6.47;;;2.00;;
68921;SDS011;55959;51.244;5.724;2023-03-23T14:06:07;3.33;;;1.77;;
68921;SDS011;55959;51.244;5.724;2023-03-23T14:08:42;4.10;;;2.00;;
68921;SDS011;55959;51.244;5.724;2023-03-23T14:11:27;4.40;;;1.80;;
68921;SDS011;55959;51.244;5.724;2023-03-23T14:14:03;3.70;;;1.57;;
68921;SDS011;55959;51.244;5.724;2023-03-23T14:16:42;3.60;;;1.73;;
68921;SDS011;55959;51.244;5.724;2023-03-23T14:19:23;5.70;;;1.90;;
68921;SDS011;55959;51.244;5.724;2023-03-23T14:22:01;3.60;;;1.60;;
68921;SDS011;55959;51.244;5.724;2023-03-23T14:24:28;2.90;;;1.37;;
68921;SDS011;55959;51.244;5.724;2023-03-23T14:27:13;3.97;;;1.97;;
68921;SDS011;55959;51.244;5.724;2023-03-23T14:29:42;4.90;;;1.80;;
68921;SDS011;55959;51.244;5.724;2023-03-23T14:32:18;3.47;;;1.73;;
68921;SDS011;55959;51.244;5.724;2023-03-23T14:34:50;5.33;;;1.97;;
68921;SDS011;55959;51.244;5.724;2023-03-23T14:37:17;4.40;;;1.80;;
68921;SDS011;55959;51.244;5.724;2023-03-23T14:39:44;4.43;;;1.80;;
68921;SDS011;55959;51.244;5.724;2023-03-23T14:42:16;4.37;;;1.80;;
68921;SDS011;55959;51.244;5.724;2023-03-23T14:44:49;6.00;;;2.10;;
68921;SDS011;55959;51.244;5.724;2023-03-23T14:47:20;4.23;;;2.10;;
68921;SDS011;55959;51.244;5.724;2023-03-23T14:49:54;2.77;;;1.57;;
68921;SDS011;55959;51.244;5.724;2023-03-23T14:52:24;5.80;;;1.90;;
68921;SDS011;55959;51.244;5.724;2023-03-23T14:54:52;5.80;;;2.17;;
68921;SDS011;55959;51.244;5.724;2023-03-23T14:57:19;3.23;;;1.70;;
68921;SDS011;55959;51.244;5.724;2023-03-23T14:59:54;3.30;;;1.77;;
68921;SDS011;55959;51.244;5.724;2023-03-23T15:02:26;3.80;;;1.90;;
68921;SDS011;55959;51.244;5.724;2023-03-23T15:05:05;4.90;;;2.17;;
68921;SDS011;55959;51.244;5.724;2023-03-23T15:07:43;6.53;;;2.70;;
68921;SDS011;55959;51.244;5.724;2023-03-23T15:10:14;4.00;;;2.30;;
68921;SDS011;55959;51.244;5.724;2023-03-23T15:12:45;5.63;;;2.57;;
68921;SDS011;55959;51.244;5.724;2023-03-23T15:17:55;5.20;;;2.20;;
68921;SDS011;55959;51.244;5.724;2023-03-23T15:23:22;4.93;;;2.43;;
68921;SDS011;55959;51.244;5.724;2023-03-23T15:25:55;5.33;;;2.50;;
68921;SDS011;55959;51.244;5.724;2023-03-23T15:28:27;4.80;;;2.60;;
68921;SDS011;55959;51.244;5.724;2023-03-23T15:30:57;6.47;;;2.40;;
68921;SDS011;55959;51.244;5.724;2023-03-23T15:33:37;4.80;;;2.37;;
68921;SDS011;55959;51.244;5.724;2023-03-23T15:36:06;5.07;;;2.27;;
68921;SDS011;55959;51.244;5.724;2023-03-23T15:38:43;5.13;;;2.10;;
68921;SDS011;55959;51.244;5.724;2023-03-23T15:41:22;5.13;;;2.07;;
68921;SDS011;55959;51.244;5.724;2023-03-23T15:43:55;5.33;;;2.40;;
68921;SDS011;55959;51.244;5.724;2023-03-23T15:46:24;4.03;;;2.00;;
68921;SDS011;55959;51.244;5.724;2023-03-23T15:51:24;4.30;;;1.60;;
68921;SDS011;55959;51.244;5.724;2023-03-23T15:53:53;4.30;;;2.23;;
68921;SDS011;55959;51.244;5.724;2023-03-23T15:56:20;3.37;;;1.80;;
68921;SDS011;55959;51.244;5.724;2023-03-23T15:58:47;3.23;;;1.60;;
68921;SDS011;55959;51.244;5.724;2023-03-23T16:01:17;3.23;;;1.97;;
68921;SDS011;55959;51.244;5.724;2023-03-23T16:06:17;3.57;;;2.10;;
68921;SDS011;55959;51.244;5.724;2023-03-23T16:08:45;3.83;;;1.70;;
68921;SDS011;55959;51.244;5.724;2023-03-23T16:11:12;5.50;;;2.47;;
68921;SDS011;55959;51.244;5.724;2023-03-23T16:13:41;6.50;;;2.10;;
68921;SDS011;55959;51.244;5.724;2023-03-23T16:16:28;4.90;;;1.80;;
68921;SDS011;55959;51.244;5.724;2023-03-23T16:19:04;2.53;;;1.50;;
68921;SDS011;55959;51.244;5.724;2023-03-23T16:21:30;3.93;;;1.70;;
68921;SDS011;55959;51.244;5.724;2023-03-23T16:23:56;3.73;;;1.90;;
68921;SDS011;55959;51.244;5.724;2023-03-23T16:26:22;4.10;;;1.90;;
68921;SDS011;55959;51.244;5.724;2023-03-23T16:28:48;3.90;;;1.70;;
68921;SDS011;55959;51.244;5.724;2023-03-23T16:31:14;4.47;;;1.70;;
68921;SDS011;55959;51.244;5.724;2023-03-23T16:33:40;4.47;;;1.73;;
68921;SDS011;55959;51.244;5.724;2023-03-23T16:36:06;4.50;;;2.10;;
68921;SDS011;55959;51.244;5.724;2023-03-23T16:38:34;3.20;;;1.80;;
68921;SDS011;55959;51.244;5.724;2023-03-23T16:40:59;4.70;;;2.00;;
68921;SDS011;55959;51.244;5.724;2023-03-23T16:43:25;6.70;;;2.07;;
68921;SDS011;55959;51.244;5.724;2023-03-23T16:45:51;5.30;;;2.00;;
68921;SDS011;55959;51.244;5.724;2023-03-23T16:48:21;5.43;;;1.93;;
68921;SDS011;55959;51.244;5.724;2023-03-23T16:50:48;2.73;;;1.40;;
68921;SDS011;55959;51.244;5.724;2023-03-23T16:53:15;4.43;;;2.00;;
68921;SDS011;55959;51.244;5.724;2023-03-23T16:55:41;4.87;;;1.70;;
68921;SDS011;55959;51.244;5.724;2023-03-23T16:58:11;4.37;;;1.80;;
68921;SDS011;55959;51.244;5.724;2023-03-23T17:00:40;4.83;;;1.97;;
68921;SDS011;55959;51.244;5.724;2023-03-23T17:03:06;2.70;;;1.43;;
68921;SDS011;55959;51.244;5.724;2023-03-23T17:05:33;3.33;;;1.80;;
68921;SDS011;55959;51.244;5.724;2023-03-23T17:08:01;5.20;;;1.83;;
68921;SDS011;55959;51.244;5.724;2023-03-23T17:10:27;4.97;;;1.90;;
68921;SDS011;55959;51.244;5.724;2023-03-23T17:12:54;4.77;;;1.93;;
68921;SDS011;55959;51.244;5.724;2023-03-23T17:15:20;6.10;;;1.93;;
68921;SDS011;55959;51.244;5.724;2023-03-23T17:17:48;3.63;;;1.80;;
68921;SDS011;55959;51.244;5.724;2023-03-23T17:20:14;4.67;;;2.03;;
68921;SDS011;55959;51.244;5.724;2023-03-23T17:22:40;4.60;;;2.00;;
68921;SDS011;55959;51.244;5.724;2023-03-23T17:25:06;3.47;;;1.83;;
68921;SDS011;55959;51.244;5.724;2023-03-23T17:27:34;6.07;;;1.97;;